createdAt,value
2022-08-27T00:00:17.292Z,990.89
2022-08-27T00:01:17.342Z,990.85
2022-08-27T00:02:17.388Z,990.94
2022-08-27T00:03:17.338Z,990.94
2022-08-27T00:04:17.437Z,990.94
2022-08-27T00:05:17.383Z,990.93
2022-08-27T00:06:17.395Z,990.93
2022-08-27T00:07:17.406Z,990.91
2022-08-27T00:08:17.403Z,990.93
2022-08-27T00:09:17.609Z,990.85
2022-08-27T00:10:17.405Z,990.93
2022-08-27T00:11:17.458Z,990.96
2022-08-27T00:12:17.418Z,990.83
2022-08-27T00:13:17.416Z,990.86
2022-08-27T00:14:17.438Z,990.83
2022-08-27T00:15:17.774Z,990.83
2022-08-27T00:16:17.512Z,990.82
2022-08-27T00:17:17.437Z,990.82
2022-08-27T00:18:22.001Z,990.78
2022-08-27T00:19:17.445Z,990.74
2022-08-27T00:20:17.434Z,990.73
2022-08-27T00:21:17.438Z,990.71
2022-08-27T00:22:17.454Z,990.73
2022-08-27T00:23:17.444Z,990.74
2022-08-27T00:24:17.447Z,990.74
2022-08-27T00:25:17.448Z,990.72
2022-08-27T00:26:17.436Z,990.77
2022-08-27T00:27:17.450Z,990.70
2022-08-27T00:28:17.456Z,990.68
2022-08-27T00:29:17.462Z,990.71
2022-08-27T00:30:17.450Z,990.67
2022-08-27T00:31:17.479Z,990.71
2022-08-27T00:32:17.437Z,990.70
2022-08-27T00:33:17.472Z,990.77
2022-08-27T00:34:17.456Z,990.63
2022-08-27T00:35:17.466Z,990.72
2022-08-27T00:36:17.444Z,990.66
2022-08-27T00:37:17.442Z,990.63
2022-08-27T00:38:17.447Z,990.62
2022-08-27T00:39:17.460Z,990.63
2022-08-27T00:40:17.507Z,990.69
2022-08-27T00:41:18.414Z,990.68
2022-08-27T00:42:17.479Z,990.65
2022-08-27T00:43:17.457Z,990.72
2022-08-27T00:44:17.463Z,990.71
2022-08-27T00:45:17.447Z,990.76
2022-08-27T00:46:17.468Z,990.69
2022-08-27T00:47:17.457Z,990.76
2022-08-27T00:48:18.179Z,990.70
2022-08-27T00:49:17.475Z,990.76
2022-08-27T00:50:17.460Z,990.80
2022-08-27T00:51:17.492Z,990.78
2022-08-27T00:52:17.462Z,990.76
2022-08-27T00:53:17.500Z,990.73
2022-08-27T00:54:18.791Z,990.69
2022-08-27T00:55:17.472Z,990.76
2022-08-27T00:56:17.486Z,990.64
2022-08-27T00:57:17.496Z,990.72
2022-08-27T00:58:17.482Z,990.76
2022-08-27T00:59:17.498Z,990.79
2022-08-27T01:00:17.490Z,990.82
2022-08-27T01:01:17.607Z,990.84
2022-08-27T01:02:17.589Z,990.78
2022-08-27T01:03:17.490Z,990.77
2022-08-27T01:04:17.506Z,990.75
2022-08-27T01:05:17.480Z,990.76
2022-08-27T01:06:17.476Z,990.84
2022-08-27T01:07:17.504Z,990.76
2022-08-27T01:08:17.489Z,990.77
2022-08-27T01:09:17.510Z,990.78
2022-08-27T01:10:17.485Z,990.69
2022-08-27T01:11:17.486Z,990.70
2022-08-27T01:12:17.485Z,990.75
2022-08-27T01:13:17.514Z,990.73
2022-08-27T01:14:17.494Z,990.74
2022-08-27T01:15:20.095Z,990.71
2022-08-27T01:16:17.703Z,990.68
2022-08-27T01:17:17.653Z,990.72
2022-08-27T01:18:17.664Z,990.72
2022-08-27T01:19:17.658Z,990.69
2022-08-27T01:20:17.675Z,990.72
2022-08-27T01:21:17.682Z,990.66
2022-08-27T01:22:21.710Z,990.72
2022-08-27T01:23:17.681Z,990.70
2022-08-27T01:24:17.715Z,990.68
2022-08-27T01:25:17.686Z,990.67
2022-08-27T01:26:17.699Z,990.71
2022-08-27T01:27:17.738Z,990.75
2022-08-27T01:28:17.703Z,990.73
2022-08-27T01:29:17.725Z,990.73
2022-08-27T01:30:17.723Z,990.71
2022-08-27T01:31:17.744Z,990.66
2022-08-27T01:32:17.733Z,990.71
2022-08-27T01:33:17.720Z,990.75
2022-08-27T01:34:17.719Z,990.74
2022-08-27T01:35:17.731Z,990.69
2022-08-27T01:36:17.720Z,990.69
2022-08-27T01:37:19.772Z,990.65
2022-08-27T01:38:30.174Z,990.69
2022-08-27T01:39:17.736Z,990.67
2022-08-27T01:40:17.754Z,990.66
2022-08-27T01:41:17.762Z,990.66
2022-08-27T01:42:47.203Z,990.62
2022-08-27T01:43:47.243Z,990.64
2022-08-27T01:44:47.243Z,990.69
2022-08-27T01:45:47.216Z,990.68
2022-08-27T01:46:47.279Z,990.68
2022-08-27T01:47:47.237Z,990.67
2022-08-27T01:48:47.247Z,990.67
2022-08-27T01:49:47.275Z,990.71
2022-08-27T01:50:47.218Z,990.73
2022-08-27T01:51:47.223Z,990.68
2022-08-27T01:52:47.251Z,990.73
2022-08-27T01:53:47.222Z,990.75
2022-08-27T01:54:47.281Z,990.67
2022-08-27T01:55:48.173Z,990.72
2022-08-27T01:56:47.245Z,990.72
2022-08-27T01:57:47.276Z,990.75
2022-08-27T01:58:47.259Z,990.70
2022-08-27T01:59:47.271Z,990.76
2022-08-27T02:00:47.332Z,990.79
2022-08-27T02:01:47.302Z,990.70
2022-08-27T02:02:47.253Z,990.78
2022-08-27T02:03:47.249Z,990.72
2022-08-27T02:04:47.267Z,990.69
2022-08-27T02:05:47.246Z,990.69
2022-08-27T02:06:47.281Z,990.65
2022-08-27T02:07:47.291Z,990.71
2022-08-27T02:08:47.260Z,990.69
2022-08-27T02:09:47.266Z,990.68
2022-08-27T02:10:47.270Z,990.67
2022-08-27T02:11:47.269Z,990.67
2022-08-27T02:12:47.296Z,990.71
2022-08-27T02:13:47.270Z,990.67
2022-08-27T02:14:47.314Z,990.69
2022-08-27T02:15:47.467Z,990.60
2022-08-27T02:16:52.077Z,990.61
2022-08-27T02:17:47.308Z,990.62
2022-08-27T02:18:47.289Z,990.55
2022-08-27T02:19:47.423Z,990.54
2022-08-27T02:20:47.451Z,990.55
2022-08-27T02:21:47.446Z,990.54
2022-08-27T02:22:47.439Z,990.56
2022-08-27T02:23:47.456Z,990.56
2022-08-27T02:24:47.479Z,990.49
2022-08-27T02:25:47.499Z,990.47
2022-08-27T02:26:47.500Z,990.54
2022-08-27T02:27:47.501Z,990.55
2022-08-27T02:28:47.517Z,990.50
2022-08-27T02:29:47.565Z,990.54
2022-08-27T02:30:47.574Z,990.55
2022-08-27T02:31:47.626Z,990.52
2022-08-27T02:32:47.583Z,990.52
2022-08-27T02:33:47.573Z,990.56
2022-08-27T02:34:47.626Z,990.44
2022-08-27T02:35:47.631Z,990.51
2022-08-27T02:36:47.649Z,990.49
2022-08-27T02:37:47.652Z,990.59
2022-08-27T02:38:47.658Z,990.48
2022-08-27T02:39:47.665Z,990.55
2022-08-27T02:40:47.712Z,990.57
2022-08-27T02:41:47.692Z,990.57
2022-08-27T02:42:47.714Z,990.52
2022-08-27T02:43:47.749Z,990.49
2022-08-27T02:44:47.726Z,990.46
2022-08-27T02:45:47.760Z,990.50
2022-08-27T02:46:47.818Z,990.47
2022-08-27T02:47:47.739Z,990.48
2022-08-27T02:48:47.757Z,990.53
2022-08-27T02:49:47.801Z,990.50
2022-08-27T02:50:47.781Z,990.49
2022-08-27T02:51:47.831Z,990.46
2022-08-27T02:52:47.800Z,990.48
2022-08-27T02:53:47.834Z,990.59
2022-08-27T02:54:47.865Z,990.53
2022-08-27T02:55:47.877Z,990.59
2022-08-27T02:56:47.883Z,990.55
2022-08-27T02:57:47.898Z,990.63
2022-08-27T02:58:47.901Z,990.57
2022-08-27T02:59:47.905Z,990.56
2022-08-27T03:00:47.927Z,990.56
2022-08-27T03:01:48.060Z,990.59
2022-08-27T03:02:48.006Z,990.56
2022-08-27T03:03:47.961Z,990.57
2022-08-27T03:04:47.992Z,990.62
2022-08-27T03:05:47.984Z,990.60
2022-08-27T03:06:47.992Z,990.64
2022-08-27T03:07:48.002Z,990.57
2022-08-27T03:08:53.218Z,990.57
2022-08-27T03:09:48.047Z,990.59
2022-08-27T03:10:48.014Z,990.64
2022-08-27T03:11:48.011Z,990.55
2022-08-27T03:12:48.038Z,990.57
2022-08-27T03:13:47.989Z,990.53
2022-08-27T03:14:48.029Z,990.51
2022-08-27T03:15:48.068Z,990.58
2022-08-27T03:16:48.042Z,990.50
2022-08-27T03:17:48.049Z,990.56
2022-08-27T03:18:48.019Z,990.59
2022-08-27T03:19:48.037Z,990.63
2022-08-27T03:20:48.041Z,990.57
2022-08-27T03:21:54.655Z,990.57
2022-08-27T03:22:48.036Z,990.58
2022-08-27T03:23:48.038Z,990.55
2022-08-27T03:24:48.065Z,990.63
2022-08-27T03:25:48.065Z,990.59
2022-08-27T03:26:52.907Z,990.55
2022-08-27T03:27:48.062Z,990.58
2022-08-27T03:28:48.038Z,990.58
2022-08-27T03:29:48.074Z,990.57
2022-08-27T03:30:48.064Z,990.57
2022-08-27T03:31:48.108Z,990.62
2022-08-27T03:32:48.063Z,990.62
2022-08-27T03:33:48.034Z,990.54
2022-08-27T03:34:48.062Z,990.57
2022-08-27T03:35:51.634Z,990.58
2022-08-27T03:36:48.022Z,990.60
2022-08-27T03:37:48.066Z,990.70
2022-08-27T03:38:48.063Z,990.68
2022-08-27T03:39:48.076Z,990.70
2022-08-27T03:40:48.039Z,990.78
2022-08-27T03:41:54.450Z,990.71
2022-08-27T03:42:48.079Z,990.68
2022-08-27T03:43:48.078Z,990.68
2022-08-27T03:44:48.087Z,990.70
2022-08-27T03:46:00.437Z,990.72
2022-08-27T03:46:48.090Z,990.72
2022-08-27T03:47:48.079Z,990.68
2022-08-27T03:48:48.073Z,990.65
2022-08-27T03:49:48.086Z,990.72
2022-08-27T03:50:48.058Z,990.64
2022-08-27T03:51:48.056Z,990.64
2022-08-27T03:52:48.078Z,990.66
2022-08-27T03:53:48.082Z,990.70
2022-08-27T03:54:48.097Z,990.66
2022-08-27T03:55:48.065Z,990.66
2022-08-27T03:56:48.062Z,990.64
2022-08-27T03:57:48.093Z,990.64
2022-08-27T03:58:48.070Z,990.62
2022-08-27T03:59:48.097Z,990.59
2022-08-27T04:00:48.077Z,990.64
2022-08-27T04:01:48.147Z,990.68
2022-08-27T04:02:48.161Z,990.69
2022-08-27T04:03:48.073Z,990.65
2022-08-27T04:04:48.112Z,990.68
2022-08-27T04:05:48.090Z,990.66
2022-08-27T04:06:48.129Z,990.63
2022-08-27T04:07:48.078Z,990.66
2022-08-27T04:08:48.082Z,990.64
2022-08-27T04:09:48.098Z,990.64
2022-08-27T04:10:48.107Z,990.67
2022-08-27T04:11:48.077Z,990.67
2022-08-27T04:12:48.084Z,990.68
2022-08-27T04:13:48.084Z,990.64
2022-08-27T04:14:48.097Z,990.71
2022-08-27T04:15:48.153Z,990.68
2022-08-27T04:16:48.114Z,990.69
2022-08-27T04:17:48.121Z,990.67
2022-08-27T04:18:48.165Z,990.70
2022-08-27T04:19:48.190Z,990.66
2022-08-27T04:20:48.153Z,990.70
2022-08-27T04:21:48.207Z,990.70
2022-08-27T04:22:48.198Z,990.70
2022-08-27T04:23:48.238Z,990.75
2022-08-27T04:24:48.212Z,990.70
2022-08-27T04:25:48.255Z,990.76
2022-08-27T04:26:48.234Z,990.77
2022-08-27T04:27:48.289Z,990.78
2022-08-27T04:28:48.704Z,990.82
2022-08-27T04:29:48.297Z,990.78
2022-08-27T04:30:48.386Z,990.85
2022-08-27T04:31:48.306Z,990.80
2022-08-27T04:32:48.313Z,990.80
2022-08-27T04:33:51.257Z,990.74
2022-08-27T04:34:48.333Z,990.80
2022-08-27T04:35:48.321Z,990.82
2022-08-27T04:36:48.342Z,990.82
2022-08-27T04:37:48.343Z,990.84
2022-08-27T04:38:48.340Z,990.77
2022-08-27T04:39:50.283Z,990.84
2022-08-27T04:40:48.368Z,990.80
2022-08-27T04:41:48.364Z,990.83
2022-08-27T04:42:48.334Z,990.89
2022-08-27T04:43:48.348Z,990.88
2022-08-27T04:44:48.366Z,990.90
2022-08-27T04:45:48.343Z,990.89
2022-08-27T04:46:49.481Z,990.96
2022-08-27T04:47:48.366Z,990.93
2022-08-27T04:48:48.382Z,990.89
2022-08-27T04:49:48.363Z,990.90
2022-08-27T04:50:48.361Z,990.90
2022-08-27T04:51:48.377Z,990.90
2022-08-27T04:52:48.386Z,990.86
2022-08-27T04:53:48.361Z,990.81
2022-08-27T04:54:48.382Z,990.79
2022-08-27T04:55:48.380Z,990.93
2022-08-27T04:56:48.364Z,990.90
2022-08-27T04:57:48.353Z,990.91
2022-08-27T04:58:48.365Z,990.84
2022-08-27T04:59:48.383Z,990.97
2022-08-27T05:00:48.352Z,990.85
2022-08-27T05:01:48.396Z,990.86
2022-08-27T05:02:48.405Z,990.92
2022-08-27T05:03:48.355Z,990.88
2022-08-27T05:04:48.442Z,990.89
2022-08-27T05:05:48.391Z,990.96
2022-08-27T05:06:48.370Z,990.99
2022-08-27T05:07:48.370Z,990.96
2022-08-27T05:08:48.396Z,990.96
2022-08-27T05:09:48.403Z,991.00
2022-08-27T05:10:48.386Z,991.01
2022-08-27T05:11:48.387Z,991.07
2022-08-27T05:12:48.392Z,990.99
2022-08-27T05:13:48.382Z,991.04
2022-08-27T05:14:48.400Z,991.02
2022-08-27T05:15:48.390Z,990.98
2022-08-27T05:16:48.359Z,991.05
2022-08-27T05:17:48.373Z,991.06
2022-08-27T05:18:48.758Z,991.01
2022-08-27T05:19:48.425Z,991.08
2022-08-27T05:20:48.412Z,991.09
2022-08-27T05:21:48.385Z,991.12
2022-08-27T05:22:48.401Z,991.07
2022-08-27T05:23:48.423Z,991.07
2022-08-27T05:24:50.418Z,991.07
2022-08-27T05:25:48.437Z,991.05
2022-08-27T05:26:48.412Z,991.13
2022-08-27T05:27:48.447Z,991.03
2022-08-27T05:28:48.481Z,991.12
2022-08-27T05:29:48.493Z,991.12
2022-08-27T05:30:52.228Z,991.11
2022-08-27T05:31:48.489Z,991.13
2022-08-27T05:32:48.479Z,991.09
2022-08-27T05:33:48.526Z,991.12
2022-08-27T05:34:48.528Z,991.11
2022-08-27T05:35:48.507Z,991.14
2022-08-27T05:36:49.162Z,991.08
2022-08-27T05:37:48.541Z,991.09
2022-08-27T05:38:48.490Z,991.11
2022-08-27T05:39:48.521Z,991.16
2022-08-27T05:40:48.536Z,991.15
2022-08-27T05:41:48.529Z,991.07
2022-08-27T05:42:50.184Z,991.06
2022-08-27T05:43:50.345Z,991.06
2022-08-27T05:44:48.667Z,991.08
2022-08-27T05:45:48.663Z,991.05
2022-08-27T05:46:48.656Z,991.11
2022-08-27T05:47:48.689Z,991.06
2022-08-27T05:48:48.691Z,991.07
2022-08-27T05:49:48.714Z,991.06
2022-08-27T05:50:48.734Z,991.11
2022-08-27T05:51:48.724Z,991.09
2022-08-27T05:52:48.702Z,991.08
2022-08-27T05:53:48.760Z,991.09
2022-08-27T05:54:48.785Z,991.09
2022-08-27T05:55:48.771Z,991.12
2022-08-27T05:56:48.771Z,991.10
2022-08-27T05:57:48.789Z,991.11
2022-08-27T05:58:48.848Z,991.08
2022-08-27T05:59:48.825Z,991.15
2022-08-27T06:00:48.839Z,991.04
2022-08-27T06:01:48.866Z,991.16
2022-08-27T06:02:48.910Z,991.07
2022-08-27T06:03:48.879Z,991.13
2022-08-27T06:04:48.963Z,991.12
2022-08-27T06:05:48.901Z,991.20
2022-08-27T06:06:48.903Z,991.10
2022-08-27T06:07:48.933Z,991.14
2022-08-27T06:08:48.948Z,991.13
2022-08-27T06:09:48.968Z,991.10
2022-08-27T06:10:48.967Z,991.08
2022-08-27T06:11:48.973Z,991.07
2022-08-27T06:12:48.993Z,991.03
2022-08-27T06:13:48.976Z,991.11
2022-08-27T06:14:49.013Z,991.05
2022-08-27T06:15:49.068Z,991.10
2022-08-27T06:16:49.042Z,991.11
2022-08-27T06:17:49.023Z,991.13
2022-08-27T06:18:49.044Z,991.04
2022-08-27T06:19:49.072Z,991.02
2022-08-27T06:20:49.082Z,991.04
2022-08-27T06:22:00.470Z,991.09
2022-08-27T06:22:49.076Z,991.02
2022-08-27T06:23:49.081Z,991.04
2022-08-27T06:24:49.123Z,991.12
2022-08-27T06:25:49.081Z,991.06
2022-08-27T06:26:49.103Z,991.13
2022-08-27T06:27:49.140Z,991.03
2022-08-27T06:28:49.120Z,991.07
2022-08-27T06:29:49.127Z,991.14
2022-08-27T06:30:49.161Z,991.12
2022-08-27T06:31:49.089Z,991.18
2022-08-27T06:32:49.116Z,991.16
2022-08-27T06:33:49.093Z,991.18
2022-08-27T06:34:49.118Z,991.14
2022-08-27T06:35:49.099Z,991.09
2022-08-27T06:36:49.101Z,991.12
2022-08-27T06:37:49.133Z,991.16
2022-08-27T06:38:49.538Z,991.12
2022-08-27T06:39:49.111Z,991.18
2022-08-27T06:40:49.104Z,991.26
2022-08-27T06:41:49.119Z,991.19
2022-08-27T06:42:49.120Z,991.17
2022-08-27T06:43:49.128Z,991.16
2022-08-27T06:44:49.122Z,991.17
2022-08-27T06:45:49.184Z,991.14
2022-08-27T06:46:49.123Z,991.15
2022-08-27T06:47:49.145Z,991.14
2022-08-27T06:48:49.116Z,991.14
2022-08-27T06:49:49.159Z,991.10
2022-08-27T06:50:49.135Z,991.13
2022-08-27T06:51:49.138Z,991.11
2022-08-27T06:52:49.134Z,991.11
2022-08-27T06:53:49.123Z,991.13
2022-08-27T06:54:49.151Z,991.03
2022-08-27T06:55:49.134Z,991.13
2022-08-27T06:56:49.156Z,991.13
2022-08-27T06:57:49.150Z,991.10
2022-08-27T06:58:49.160Z,991.15
2022-08-27T06:59:49.161Z,991.22
2022-08-27T07:00:49.206Z,991.17
2022-08-27T07:01:49.282Z,991.13
2022-08-27T07:02:49.225Z,991.23
2022-08-27T07:03:49.354Z,991.23
2022-08-27T07:04:49.169Z,991.16
2022-08-27T07:05:49.173Z,991.19
2022-08-27T07:06:49.157Z,991.18
2022-08-27T07:07:49.171Z,991.16
2022-08-27T07:08:53.261Z,991.15
2022-08-27T07:09:49.179Z,991.16
2022-08-27T07:10:49.128Z,991.13
2022-08-27T07:11:49.146Z,991.13
2022-08-27T07:12:49.156Z,991.16
2022-08-27T07:13:49.173Z,991.16
2022-08-27T07:14:49.203Z,991.12
2022-08-27T07:15:49.191Z,991.18
2022-08-27T07:16:49.157Z,991.17
2022-08-27T07:17:49.162Z,991.09
2022-08-27T07:18:49.191Z,991.15
2022-08-27T07:19:49.184Z,991.09
2022-08-27T07:20:49.152Z,991.07
2022-08-27T07:21:49.170Z,991.09
2022-08-27T07:22:49.183Z,991.08
2022-08-27T07:23:49.154Z,991.09
2022-08-27T07:24:49.258Z,991.01
2022-08-27T07:25:49.166Z,991.03
2022-08-27T07:26:49.168Z,991.15
2022-08-27T07:27:49.191Z,991.08
2022-08-27T07:28:50.179Z,991.12
2022-08-27T07:29:49.181Z,991.11
2022-08-27T07:30:49.218Z,991.04
2022-08-27T07:31:49.218Z,991.02
2022-08-27T07:32:49.181Z,991.12
2022-08-27T07:33:52.185Z,991.06
2022-08-27T07:34:49.206Z,991.10
2022-08-27T07:35:49.193Z,991.15
2022-08-27T07:36:49.190Z,991.15
2022-08-27T07:37:49.194Z,991.18
2022-08-27T07:38:56.527Z,991.18
2022-08-27T07:39:49.206Z,991.17
2022-08-27T07:40:49.200Z,991.17
2022-08-27T07:41:49.179Z,991.17
2022-08-27T07:42:49.211Z,991.14
2022-08-27T07:43:49.209Z,991.25
2022-08-27T07:44:49.193Z,991.18
2022-08-27T07:45:49.282Z,991.14
2022-08-27T07:46:49.578Z,991.17
2022-08-27T07:47:49.174Z,991.15
2022-08-27T07:48:49.183Z,991.20
2022-08-27T07:49:49.198Z,991.20
2022-08-27T07:50:49.203Z,991.22
2022-08-27T07:51:49.182Z,991.21
2022-08-27T07:52:49.199Z,991.17
2022-08-27T07:53:49.215Z,991.16
2022-08-27T07:54:49.194Z,991.16
2022-08-27T07:55:49.206Z,991.12
2022-08-27T07:56:55.299Z,991.13
2022-08-27T07:57:49.237Z,991.20
2022-08-27T07:58:49.236Z,991.22
2022-08-27T07:59:49.212Z,991.18
2022-08-27T08:00:49.207Z,991.24
2022-08-27T08:01:49.254Z,991.21
2022-08-27T08:02:49.279Z,991.21
2022-08-27T08:03:49.234Z,991.19
2022-08-27T08:04:49.210Z,991.19
2022-08-27T08:05:49.210Z,991.20
2022-08-27T08:06:49.294Z,991.21
2022-08-27T08:07:49.241Z,991.22
2022-08-27T08:08:49.218Z,991.18
2022-08-27T08:09:49.225Z,991.24
2022-08-27T08:10:49.245Z,991.24
2022-08-27T08:11:49.257Z,991.27
2022-08-27T08:12:49.247Z,991.14
2022-08-27T08:13:49.248Z,991.21
2022-08-27T08:14:49.248Z,991.28
2022-08-27T08:15:49.227Z,991.23
2022-08-27T08:16:49.284Z,991.27
2022-08-27T08:17:49.247Z,991.15
2022-08-27T08:18:49.281Z,991.21
2022-08-27T08:20:02.626Z,991.19
2022-08-27T08:20:58.156Z,991.24
2022-08-27T08:21:49.252Z,991.24
2022-08-27T08:22:49.231Z,991.28
2022-08-27T08:23:49.259Z,991.28
2022-08-27T08:24:49.246Z,991.34
2022-08-27T08:25:49.263Z,991.26
2022-08-27T08:26:49.242Z,991.34
2022-08-27T08:27:49.241Z,991.27
2022-08-27T08:28:49.266Z,991.29
2022-08-27T08:29:49.263Z,991.30
2022-08-27T08:30:49.297Z,991.28
2022-08-27T08:31:50.134Z,991.28
2022-08-27T08:32:49.287Z,991.22
2022-08-27T08:33:49.274Z,991.24
2022-08-27T08:34:49.260Z,991.24
2022-08-27T08:35:49.257Z,991.26
2022-08-27T08:36:54.727Z,991.26
2022-08-27T08:37:49.284Z,991.25
2022-08-27T08:38:49.267Z,991.24
2022-08-27T08:39:49.282Z,991.29
2022-08-27T08:40:49.284Z,991.30
2022-08-27T08:41:49.290Z,991.31
2022-08-27T08:42:50.685Z,991.31
2022-08-27T08:43:49.305Z,991.33
2022-08-27T08:44:49.256Z,991.26
2022-08-27T08:45:49.346Z,991.36
2022-08-27T08:46:49.280Z,991.38
2022-08-27T08:47:49.306Z,991.32
2022-08-27T08:48:49.310Z,991.43
2022-08-27T08:49:49.311Z,991.36
2022-08-27T08:50:49.267Z,991.35
2022-08-27T08:51:49.289Z,991.39
2022-08-27T08:52:49.273Z,991.33
2022-08-27T08:53:49.452Z,991.36
2022-08-27T08:54:49.305Z,991.38
2022-08-27T08:55:49.276Z,991.40
2022-08-27T08:56:54.364Z,991.42
2022-08-27T08:57:49.286Z,991.46
2022-08-27T08:58:49.332Z,991.41
2022-08-27T08:59:49.297Z,991.37
2022-08-27T09:00:49.282Z,991.45
2022-08-27T09:01:49.361Z,991.42
2022-08-27T09:02:49.303Z,991.47
2022-08-27T09:03:49.358Z,991.39
2022-08-27T09:04:49.298Z,991.41
2022-08-27T09:05:49.313Z,991.47
2022-08-27T09:06:49.313Z,991.50
2022-08-27T09:07:49.312Z,991.47
2022-08-27T09:08:49.513Z,991.47
2022-08-27T09:09:49.319Z,991.47
2022-08-27T09:10:49.305Z,991.49
2022-08-27T09:11:49.293Z,991.50
2022-08-27T09:12:49.304Z,991.52
2022-08-27T09:13:49.345Z,991.44
2022-08-27T09:14:49.326Z,991.46
2022-08-27T09:15:49.293Z,991.52
2022-08-27T09:16:49.396Z,991.55
2022-08-27T09:17:49.323Z,991.40
2022-08-27T09:18:51.355Z,991.46
2022-08-27T09:19:52.375Z,991.52
2022-08-27T09:20:49.326Z,991.43
2022-08-27T09:21:49.334Z,991.48
2022-08-27T09:22:49.321Z,991.44
2022-08-27T09:23:49.344Z,991.41
2022-08-27T09:24:49.324Z,991.47
2022-08-27T09:25:49.369Z,991.44
2022-08-27T09:26:49.310Z,991.43
2022-08-27T09:27:49.324Z,991.48
2022-08-27T09:28:49.363Z,991.47
2022-08-27T09:29:49.362Z,991.40
2022-08-27T09:30:49.449Z,991.46
2022-08-27T09:31:49.367Z,991.44
2022-08-27T09:32:49.356Z,991.46
2022-08-27T09:33:56.025Z,991.40
2022-08-27T09:34:49.332Z,991.35
2022-08-27T09:35:49.350Z,991.45
2022-08-27T09:36:49.374Z,991.50
2022-08-27T09:37:49.362Z,991.52
2022-08-27T09:38:49.342Z,991.50
2022-08-27T09:39:49.386Z,991.52
2022-08-27T09:40:49.453Z,991.49
2022-08-27T09:41:49.332Z,991.51
2022-08-27T09:42:49.642Z,991.48
2022-08-27T09:43:49.341Z,991.49
2022-08-27T09:44:53.363Z,991.50
2022-08-27T09:45:49.443Z,991.52
2022-08-27T09:46:49.352Z,991.51
2022-08-27T09:47:49.362Z,991.51
2022-08-27T09:48:49.369Z,991.54
2022-08-27T09:49:49.413Z,991.51
2022-08-27T09:50:49.380Z,991.53
2022-08-27T09:51:49.353Z,991.51
2022-08-27T09:52:49.403Z,991.45
2022-08-27T09:53:50.159Z,991.52
2022-08-27T09:54:49.375Z,991.49
2022-08-27T09:55:49.369Z,991.44
2022-08-27T09:56:49.394Z,991.44
2022-08-27T09:57:49.372Z,991.51
2022-08-27T09:58:49.373Z,991.48
2022-08-27T09:59:49.390Z,991.45
2022-08-27T10:00:49.386Z,991.48
2022-08-27T10:01:49.372Z,991.48
2022-08-27T10:02:49.389Z,991.46
2022-08-27T10:03:49.417Z,991.39
2022-08-27T10:04:51.397Z,991.42
2022-08-27T10:05:49.388Z,991.41
2022-08-27T10:06:49.372Z,991.43
2022-08-27T10:07:49.439Z,991.38
2022-08-27T10:08:49.398Z,991.47
2022-08-27T10:09:49.396Z,991.42
2022-08-27T10:10:49.392Z,991.51
2022-08-27T10:11:49.395Z,991.40
2022-08-27T10:12:49.419Z,991.39
2022-08-27T10:13:49.391Z,991.33
2022-08-27T10:14:49.410Z,991.36
2022-08-27T10:15:49.746Z,991.44
2022-08-27T10:16:49.511Z,991.39
2022-08-27T10:17:49.477Z,991.40
2022-08-27T10:18:49.481Z,991.50
2022-08-27T10:19:49.471Z,991.42
2022-08-27T10:20:49.491Z,991.36
2022-08-27T10:21:49.509Z,991.32
2022-08-27T10:22:49.510Z,991.31
2022-08-27T10:23:49.514Z,991.38
2022-08-27T10:24:49.523Z,991.41
2022-08-27T10:25:49.545Z,991.36
2022-08-27T10:26:49.567Z,991.34
2022-08-27T10:27:49.596Z,991.40
2022-08-27T10:28:49.581Z,991.37
2022-08-27T10:29:49.612Z,991.39
2022-08-27T10:30:49.619Z,991.30
2022-08-27T10:31:49.746Z,991.40
2022-08-27T10:32:52.201Z,991.35
2022-08-27T10:33:49.623Z,991.30
2022-08-27T10:34:49.642Z,991.38
2022-08-27T10:35:54.568Z,991.33
2022-08-27T10:36:49.641Z,991.33
2022-08-27T10:37:49.648Z,991.38
2022-08-27T10:38:49.650Z,991.41
2022-08-27T10:39:49.634Z,991.38
2022-08-27T10:40:49.649Z,991.29
2022-08-27T10:41:49.662Z,991.31
2022-08-27T10:42:49.660Z,991.31
2022-08-27T10:43:49.636Z,991.32
2022-08-27T10:44:49.667Z,991.34
2022-08-27T10:45:49.724Z,991.33
2022-08-27T10:46:50.606Z,991.29
2022-08-27T10:47:49.658Z,991.29
2022-08-27T10:48:49.666Z,991.29
2022-08-27T10:49:49.663Z,991.31
2022-08-27T10:50:49.667Z,991.26
2022-08-27T10:51:49.670Z,991.26
2022-08-27T10:52:51.432Z,991.34
2022-08-27T10:53:49.674Z,991.26
2022-08-27T10:54:49.659Z,991.33
2022-08-27T10:55:49.678Z,991.30
2022-08-27T10:57:00.101Z,991.32
2022-08-27T10:57:58.915Z,991.30
2022-08-27T10:58:49.659Z,991.25
2022-08-27T10:59:49.665Z,991.32
2022-08-27T11:00:49.667Z,991.41
2022-08-27T11:01:49.717Z,991.31
2022-08-27T11:02:49.700Z,991.38
2022-08-27T11:03:49.689Z,991.35
2022-08-27T11:04:49.683Z,991.33
2022-08-27T11:05:49.721Z,991.42
2022-08-27T11:06:49.657Z,991.41
2022-08-27T11:07:49.694Z,991.39
2022-08-27T11:08:49.699Z,991.30
2022-08-27T11:09:52.637Z,991.33
2022-08-27T11:10:49.681Z,991.44
2022-08-27T11:12:13.268Z,991.40
2022-08-27T11:12:49.705Z,991.38
2022-08-27T11:13:49.686Z,991.32
2022-08-27T11:14:49.695Z,991.39
2022-08-27T11:15:49.689Z,991.40
2022-08-27T11:16:49.775Z,991.42
2022-08-27T11:17:49.722Z,991.34
2022-08-27T11:18:49.707Z,991.30
2022-08-27T11:19:49.709Z,991.38
2022-08-27T11:20:49.704Z,991.39
2022-08-27T11:21:49.697Z,991.37
2022-08-27T11:22:49.717Z,991.32
2022-08-27T11:23:49.709Z,991.31
2022-08-27T11:24:49.712Z,991.32
2022-08-27T11:25:49.711Z,991.41
2022-08-27T11:26:49.727Z,991.36
2022-08-27T11:27:49.733Z,991.31
2022-08-27T11:28:49.720Z,991.39
2022-08-27T11:29:49.748Z,991.34
2022-08-27T11:30:49.743Z,991.38
2022-08-27T11:31:49.795Z,991.42
2022-08-27T11:32:49.716Z,991.43
2022-08-27T11:33:49.708Z,991.44
2022-08-27T11:34:49.717Z,991.43
2022-08-27T11:35:49.714Z,991.34
2022-08-27T11:36:54.216Z,991.37
2022-08-27T11:37:49.752Z,991.37
2022-08-27T11:38:49.720Z,991.38
2022-08-27T11:39:51.880Z,991.36
2022-08-27T11:40:49.736Z,991.40
2022-08-27T11:41:49.735Z,991.44
2022-08-27T11:42:49.738Z,991.42
2022-08-27T11:43:49.729Z,991.44
2022-08-27T11:44:49.733Z,991.41
2022-08-27T11:45:49.742Z,991.42
2022-08-27T11:46:49.770Z,991.42
2022-08-27T11:47:49.777Z,991.47
2022-08-27T11:48:49.737Z,991.47
2022-08-27T11:49:49.749Z,991.42
2022-08-27T11:50:49.749Z,991.46
2022-08-27T11:51:49.746Z,991.45
2022-08-27T11:52:49.768Z,991.42
2022-08-27T11:53:52.228Z,991.39
2022-08-27T11:54:49.744Z,991.40
2022-08-27T11:55:49.738Z,991.41
2022-08-27T11:56:49.761Z,991.34
2022-08-27T11:57:49.754Z,991.38
2022-08-27T11:58:52.880Z,991.34
2022-08-27T11:59:49.738Z,991.33
2022-08-27T12:00:49.741Z,991.31
2022-08-27T12:01:49.740Z,991.31
2022-08-27T12:02:49.775Z,991.38
2022-08-27T12:03:49.846Z,991.34
2022-08-27T12:04:49.754Z,991.36
2022-08-27T12:05:49.780Z,991.34
2022-08-27T12:06:49.772Z,991.44
2022-08-27T12:07:49.782Z,991.37
2022-08-27T12:08:49.773Z,991.38
2022-08-27T12:09:49.755Z,991.41
2022-08-27T12:10:49.777Z,991.41
2022-08-27T12:11:53.387Z,991.41
2022-08-27T12:12:49.802Z,991.36
2022-08-27T12:13:49.783Z,991.36
2022-08-27T12:14:49.766Z,991.36
2022-08-27T12:15:49.793Z,991.43
2022-08-27T12:16:49.890Z,991.36
2022-08-27T12:17:49.809Z,991.40
2022-08-27T12:18:49.781Z,991.42
2022-08-27T12:19:49.794Z,991.46
2022-08-27T12:20:49.805Z,991.39
2022-08-27T12:21:49.786Z,991.40
2022-08-27T12:22:49.813Z,991.33
2022-08-27T12:23:49.803Z,991.32
2022-08-27T12:24:49.796Z,991.37
2022-08-27T12:25:49.830Z,991.37
2022-08-27T12:26:49.808Z,991.35
2022-08-27T12:27:49.845Z,991.36
2022-08-27T12:28:49.798Z,991.36